Paradise Valley, Nevada Weather observations

Data are for 10 minute period ending at time listed.
 Day   Time   Solar   Ave.   Ave.  Ave.  Vector  Max.   Baro.   Total    
  of    of     Rad.   Air    Rel.  Wind   Wind   Wind  Press.  Precip.   
Year   Day            Temp.  Hum.  Speed  Dir.   Gust                    
2014   (PST)  Kw/m2    F      %     mph   deg.    mph    mb.     in.     
-------------------------------------------------------------------------
 330    4:50   0.00   36.2   212    1.8   331     2.9   876.3    0.00 
 330    5:00   0.00   35.2   212    2.0   312     3.3   876.3    0.00 
 330    5:10   0.00   29.7   209    2.1   270     3.7   876.3    0.00 
 330    5:20   0.00   21.1   205    3.0   256     4.3   876.4    0.00 
 330    5:30   0.00   19.5   203    2.5   258     3.7   876.5    0.00 
 330    5:40   0.00   27.8   204    2.3   261     3.7   876.5    0.00 
 330    5:50   0.00   28.2   204    1.3   269     2.3   876.5    0.00 
 330    6:00   0.00   25.4   199    2.0   268     5.0   876.5    0.00 
 330    6:10   0.00   23.3   199    2.1   254     3.8   876.6    0.00 
 330    6:20   0.00   31.4   201    1.6   253     4.5   876.7    0.00 
 330    6:30   0.00   34.6   202    2.7   258     5.5   876.7    0.00 
 330    6:40   0.00   34.9   205    2.7   249     4.1   876.7    0.00 
 330    6:50   0.01   31.9   202    3.1   254     4.3   876.7    0.00 
 330    7:00   0.01   31.6   205    2.7   265     5.0   876.7    0.00 
 330    7:10   0.04   30.4   208    2.7   281     3.3   876.8    0.00 
 330    7:20   0.06   24.2   209    1.5   301     3.0   876.8    0.00 
 330    7:30   0.08    6.3   203    0.1   268     2.6   876.7    0.00 
 330    7:40   0.10   -1.2   200    1.3   258     2.9   876.8    0.00 
 330    7:50   0.14   -4.4   200    0.9    32     2.6   877.0    0.00 
 330    8:00   0.17   -7.0   198    0.5    42     1.4   877.0    0.00 
 330    8:10   0.20   -8.2   196    1.2    39     2.0   876.9    0.00 
 330    8:20   0.22   -8.9   196    1.2    15     1.9   876.9    0.00 
 330    8:30   0.24   -8.0   196    1.1   336     2.0   877.0    0.00 
 330    8:40   0.27  -10.7   195    0.5   345     1.8   877.0    0.00 
 330    8:50   0.29  -11.1   196    1.4    30     2.4   877.0    0.00 
 330    9:00   0.32  -12.7   194    1.4    46     2.4   877.1    0.00 
 330    9:10   0.36  -14.0   193    1.9    87     2.9   877.1    0.00 
 330    9:20   0.32  -14.9   192    0.9    90     2.3   877.0    0.00 
 330    9:30   0.35  -15.2   191    0.9    20     2.5   877.0    0.00 
 330    9:40   0.34  -15.6   192    0.7    89     2.2   877.0    0.00 
 330    9:50   0.32  -16.0   192    1.3   140     2.3   877.0    0.00 
 330   10:00   0.34  -16.7   192    0.6   122     2.0   876.9    0.00 
 330   10:10   0.34  -16.5   192    0.5   167     2.2   876.7    0.00 
 330   10:20   0.42  -16.5   193    0.8   343     2.2   876.7    0.00 
 330   10:30   0.47  -16.5   192    0.6     8     1.9   876.5    0.00 
 330   10:40   0.41  -16.5   192    1.3   356     2.3   876.3    0.00 
 330   10:50   0.45  -16.5   191    1.4   335     2.9   876.2    0.00 
 330   11:00   0.33  -16.8   191    1.0   338     2.9   875.9    0.00 
 330   11:10   0.45  -16.7   190    0.7   340     2.1   875.8    0.00 
 330   11:20   0.41  -16.6   191    1.0   321     4.2   875.6    0.00 
 330   11:30   0.33  -16.5   191    0.5   304     2.2   875.5    0.00 
 330   11:40   0.28  -16.5   190    0.8   312     1.8   875.3    0.00 
 330   11:50   0.28  -16.5   190    1.1   334     2.4   875.1    0.00 
 330   12:00   0.43  -17.1   190    1.0   288     2.8   875.0    0.00 
 330   12:10   0.52  -16.8   190    1.1   177     3.6   874.8    0.00 
 330   12:20   0.37  -16.5   190    2.2   111     5.4   874.6    0.00 
 330   12:30   0.43  -16.3   190    2.0   110     4.8   874.5    0.00 
 330   12:40   0.42  -16.1   190    2.8    82     5.6   874.4    0.00 
 330   12:50   0.47  -16.0   190    2.8    53     5.3   874.3    0.00 
 330   13:00   0.47  -16.4   189    3.3    23     5.7   874.2    0.00 
 330   13:10   0.42  -16.1   188    2.7    14     4.7   874.2    0.00 
 330   13:20   0.42  -15.4   191    2.8     6     5.3   874.1    0.00 
 330   13:30   0.23  -15.1   190    1.9   337     3.1   874.0    0.00 
 330   13:40   0.20  -15.1   190    2.6   331     3.9   873.9    0.00 
 330   13:50   0.21  -15.3   190    2.5   331     3.6   873.8    0.00 
 330   14:00   0.20  -16.0   189    1.9   333     2.9   873.6    0.00 
 330   14:10   0.21  -15.9   189    1.3   330     2.4   873.5    0.00 
 330   14:20   0.13  -15.9   189    1.7    12     2.3   873.5    0.00 
 330   14:30   0.11  -15.8   190    2.7    13     3.4   873.5    0.00 
 330   14:40   0.08  -15.9   190    2.5   350     2.9   873.5    0.00 
 330   14:50   0.06  -16.0   190    2.7   339     3.3   873.5    0.00 
 330   15:00   0.06  -19.6   188    1.6   336     2.4   873.5    0.00 
 330   15:10   0.04  -17.0   190    1.4   315     1.9   873.5    0.00 
 330   15:20   0.04  -16.7   190    2.3   278     2.8   873.6    0.00 
 330   15:30   0.03  -17.7   190    3.1   258     3.8   873.6    0.00 
 330   15:40   100.00  99999.0   99999  99999.0   99999   99999.0   99999.0   99999.00 
 330   15:50   0.03  -20.2   189    4.4   251     5.1   873.5    0.00 
 330   16:00   0.04  -21.1   189    4.3   250     5.1   873.5    0.00 
 330   16:10   0.02  -22.4   188    3.9   246     4.6   873.4    0.00 
 330   16:20   0.01  -24.6   187    4.1   246     4.7   873.4    0.00 
 330   16:30   0.00  -25.2   186    4.3   259     5.1   873.4    0.00 
 330   16:40   0.00  -26.1   184    4.1   252     5.0   873.4    0.00 
 330   16:50   0.00  -25.5   186    4.5   245     5.2   873.5    0.00 
 330   17:00   0.00  -27.3   185    5.0   242     5.6   873.5    0.00 
 330   17:10   0.00  -26.6   187    4.3   244     4.7   873.5    0.00 
 330   17:20   0.00  -25.9   186    3.9   247     4.6   873.5    0.00 
 330   17:30   0.00  -23.5   187    4.1   263     4.7   873.4    0.00 
 330   17:40   0.00  -24.8   187    4.6   251     5.3   873.3    0.00 
 330   17:50   0.00  -25.5   187    3.9   256     5.1   873.2    0.00 
 330   18:00   0.00  -26.4   186    3.6   259     4.3   873.1    0.00 
 330   18:10   0.00  -24.6   187    3.7   251     4.8   873.1    0.00 
 330   18:20   0.00  -18.7   189    1.2   301     3.4   873.2    0.00 
 330   18:30   0.00  -15.2   191    2.2   299     3.4   873.2    0.00 
 330   18:40   0.00  -13.9   191    2.3   294     3.6   873.2    0.00 
 330   18:50   0.00  -13.6   191    3.3   298     4.6   873.3    0.00 
 330   19:00   0.00  -13.3   191    2.9   314     3.7   873.3    0.00 
 330   19:10   0.00  -12.4   192    2.0   347     3.6   873.3    0.00 
 330   19:20   0.00  -11.5   192    1.8   330     2.8   873.1    0.00 
 330   19:30   0.00   -8.3   194    1.1   298     2.8   873.0    0.00 
 330   19:40   0.00  -10.5   193    0.5   276     2.2   872.9    0.00 
 330   19:50   0.00   -6.3   196    1.4   310     2.3   873.0    0.00 
 330   20:00   0.00   -8.7   194    1.0   281     2.0   872.9    0.00 
 330   20:10   0.00   -9.1   194    2.8   299     3.6   872.9    0.00 
 330   20:20   0.00   -8.3   194    2.7   308     3.6   872.9    0.00 
 330   20:30   0.00  -12.9   191    3.3     8     4.8   873.0    0.00 
 330   20:40   0.00  -12.6   193    2.3   348     3.1   873.0    0.00 
 330   20:50   0.00  -10.0   193    0.8   303     1.2   872.9    0.00 
 330   21:00   0.00  -10.5   193    1.9   287     2.8   872.9    0.00 
 330   21:10   0.00   -5.5   197    2.3   292     3.0   872.9    0.00 
 330   21:20   0.00   -6.7   196    2.2   301     2.6   872.9    0.00 
 330   21:30   0.00   -7.7   194    2.1   334     2.7   872.8    0.00 
 330   21:40   0.00   -8.2   194    1.3   336     2.0   872.8    0.00 
 330   21:50   0.00   -9.8   194    1.5   298     2.8   872.7    0.00 
 330   22:00   0.00   -7.6   195    2.4   279     3.1   872.8    0.00 
 330   22:10   0.00   -0.4   196    1.3   292     2.3   872.7    0.00 
 330   22:20   0.00    0.4   198    1.6   307     2.5   872.7    0.00 
 330   22:30   0.00    2.9   199    2.0   264     3.1   872.7    0.00 
 330   22:40   0.00    0.4   197    1.3   248     3.9   872.6    0.00 
 330   22:50   0.00   -4.8   195    1.2   262     2.8   872.6    0.00 
 330   23:00   0.00   -5.6   195    2.0   294     2.7   872.6    0.00 
 330   23:10   0.00   -3.7   195    0.9   297     2.1   872.7    0.00 
 330   23:20   0.00   -2.4   195    1.6   284     3.1   872.7    0.00 
 330   23:30   0.00   -0.0   196    1.7   264     3.1   872.7    0.00 
 330   23:40   0.00    2.4   198    1.1   267     3.6   872.7    0.00 
 330   23:50   0.00    2.4   197    1.3   257     2.5   872.7    0.00 
 331    0:00   0.00    2.8   198    2.3   236     3.1   872.7    0.00 
 331    0:10   0.00    3.3   197    2.5   221     4.0   872.7    0.00 
 331    0:20   0.00    2.3   198    2.2   178     3.4   872.6    0.00 
 331    0:30   0.00   -4.0   195    1.3   135     2.7   872.5    0.00 
 331    0:40   0.00    0.6   197    1.0   155     2.5   872.5    0.00 
 331    0:50   0.00    2.2   198    2.2   170     3.9   872.4    0.00 
 331    1:00   0.00    1.7   197    4.6   184     6.0   872.2    0.00 
 331    1:10   0.00   -2.1   195    5.5   185     7.1   872.0    0.00 
 331    1:20   0.00   -7.6   193    7.5   182     9.5   872.0    0.00 
 331    1:30   0.00  -13.2   191    8.9   187    10.4   872.0    0.00 
 331    1:40   0.00  -16.8   190    9.4   190    11.3   871.9    0.00 
 331    1:50   0.00  -19.9   189    9.5   191    11.3   871.8    0.00 
 331    2:00   0.00  -24.8   185    8.6   189    10.6   871.9    0.00 
 331    2:10   0.00  -22.7   186    9.0   177    11.3   871.8    0.00 
 331    2:20   0.00  -23.2   186    7.6   171    11.2   871.7    0.00 
 331    2:30   0.00  -21.2   188    2.8    42     8.8   871.9    0.00 
 331    2:40   0.00  -16.7   190    4.9    45     9.6   872.0    0.00 
 331    2:50   0.00   -0.2   196    3.4    22     5.8   872.0    0.00 
 331    3:00   0.00    5.2   197    2.2   352     3.7   872.0    0.00 
 331    3:10   0.00    6.9   197    0.4   324     1.8   871.8    0.00 
 331    3:20   0.00    7.7   198    2.1   326     3.4   871.7    0.00 
 331    3:30   0.00    7.3   197    2.2     5     5.9   871.7    0.00 
 331    3:40   0.00    8.3   197    2.7     1     3.8   871.7    0.00 
 331    3:50   0.00    8.3   195    2.6   339     4.4   871.7    0.00 
 331    4:00   0.00    7.4   195    1.5   316     3.7   871.7    0.00 
 331    4:10   0.00    6.8   196    2.3   307     3.1   871.7    0.00 
 331    4:20   0.00    4.9   197    1.7   244     3.1   871.6    0.00 
 331    4:30   0.00    4.5   196    1.8   193     3.2   871.4    0.00 
 331    4:40   0.00   -1.1   194    1.5   203     3.7   871.4    0.00 

Return to Paradise Valley graphs page.


Western Regional Climate Center,wrcc@dri.edu